sensor_id;sensor_type;location;lat;lon;timestamp;P1;durP1;ratioP1;P2;durP2;ratioP2
81510;SDS011;70931;48.796;8.440;2023-08-17T00:01:46;10.38;;;6.20;;
81510;SDS011;70931;48.796;8.440;2023-08-17T00:04:12;10.23;;;5.90;;
81510;SDS011;70931;48.796;8.440;2023-08-17T00:06:38;11.57;;;6.85;;
81510;SDS011;70931;48.796;8.440;2023-08-17T00:09:03;12.17;;;6.00;;
81510;SDS011;70931;48.796;8.440;2023-08-17T00:11:28;11.60;;;7.03;;
81510;SDS011;70931;48.796;8.440;2023-08-17T00:13:53;11.23;;;6.30;;
81510;SDS011;70931;48.796;8.440;2023-08-17T00:16:19;11.93;;;6.43;;
81510;SDS011;70931;48.796;8.440;2023-08-17T00:18:44;10.57;;;6.30;;
81510;SDS011;70931;48.796;8.440;2023-08-17T00:21:09;8.57;;;5.63;;
81510;SDS011;70931;48.796;8.440;2023-08-17T00:23:34;8.93;;;5.90;;
81510;SDS011;70931;48.796;8.440;2023-08-17T00:26:00;12.55;;;6.60;;
81510;SDS011;70931;48.796;8.440;2023-08-17T00:28:25;10.50;;;6.40;;
81510;SDS011;70931;48.796;8.440;2023-08-17T00:30:50;10.83;;;6.60;;
81510;SDS011;70931;48.796;8.440;2023-08-17T00:33:16;11.10;;;6.10;;
81510;SDS011;70931;48.796;8.440;2023-08-17T00:35:41;10.37;;;5.97;;
81510;SDS011;70931;48.796;8.440;2023-08-17T00:38:06;13.20;;;6.50;;
81510;SDS011;70931;48.796;8.440;2023-08-17T00:40:31;11.23;;;6.90;;
81510;SDS011;70931;48.796;8.440;2023-08-17T00:42:57;10.27;;;6.10;;
81510;SDS011;70931;48.796;8.440;2023-08-17T00:45:22;8.63;;;6.27;;
81510;SDS011;70931;48.796;8.440;2023-08-17T00:47:48;12.50;;;6.38;;
81510;SDS011;70931;48.796;8.440;2023-08-17T00:50:14;11.95;;;6.57;;
81510;SDS011;70931;48.796;8.440;2023-08-17T00:52:40;12.70;;;7.32;;
81510;SDS011;70931;48.796;8.440;2023-08-17T00:55:07;10.82;;;6.47;;
81510;SDS011;70931;48.796;8.440;2023-08-17T00:57:32;13.57;;;6.43;;
81510;SDS011;70931;48.796;8.440;2023-08-17T00:59:58;14.93;;;6.63;;
81510;SDS011;70931;48.796;8.440;2023-08-17T01:02:24;9.75;;;5.90;;
81510;SDS011;70931;48.796;8.440;2023-08-17T01:04:49;8.43;;;6.13;;
81510;SDS011;70931;48.796;8.440;2023-08-17T01:07:15;10.20;;;6.03;;
81510;SDS011;70931;48.796;8.440;2023-08-17T01:09:40;8.93;;;5.60;;
81510;SDS011;70931;48.796;8.440;2023-08-17T01:15:19;10.60;;;5.60;;
81510;SDS011;70931;48.796;8.440;2023-08-17T01:20:42;11.40;;;5.28;;
81510;SDS011;70931;48.796;8.440;2023-08-17T01:23:08;8.73;;;5.00;;
81510;SDS011;70931;48.796;8.440;2023-08-17T01:25:34;8.10;;;4.90;;
81510;SDS011;70931;48.796;8.440;2023-08-17T01:27:59;9.60;;;5.93;;
81510;SDS011;70931;48.796;8.440;2023-08-17T01:30:24;9.57;;;5.37;;
81510;SDS011;70931;48.796;8.440;2023-08-17T01:35:37;9.98;;;6.00;;
81510;SDS011;70931;48.796;8.440;2023-08-17T01:38:04;8.73;;;5.75;;
81510;SDS011;70931;48.796;8.440;2023-08-17T01:40:34;9.68;;;5.50;;
81510;SDS011;70931;48.796;8.440;2023-08-17T01:43:03;10.10;;;5.35;;
81510;SDS011;70931;48.796;8.440;2023-08-17T01:45:29;9.25;;;5.07;;
81510;SDS011;70931;48.796;8.440;2023-08-17T01:47:55;10.15;;;4.70;;
81510;SDS011;70931;48.796;8.440;2023-08-17T01:50:20;8.52;;;4.35;;
81510;SDS011;70931;48.796;8.440;2023-08-17T01:52:46;8.25;;;5.30;;
81510;SDS011;70931;48.796;8.440;2023-08-17T01:55:11;9.53;;;4.70;;
81510;SDS011;70931;48.796;8.440;2023-08-17T01:57:36;11.20;;;5.00;;
81510;SDS011;70931;48.796;8.440;2023-08-17T02:00:02;8.23;;;5.03;;
81510;SDS011;70931;48.796;8.440;2023-08-17T02:02:32;9.32;;;4.55;;
81510;SDS011;70931;48.796;8.440;2023-08-17T02:04:57;8.53;;;4.87;;
81510;SDS011;70931;48.796;8.440;2023-08-17T02:07:22;9.93;;;5.03;;
81510;SDS011;70931;48.796;8.440;2023-08-17T02:09:47;10.87;;;4.60;;
81510;SDS011;70931;48.796;8.440;2023-08-17T02:12:13;8.80;;;4.40;;
81510;SDS011;70931;48.796;8.440;2023-08-17T02:14:38;8.73;;;3.93;;
81510;SDS011;70931;48.796;8.440;2023-08-17T02:17:03;7.80;;;4.50;;
81510;SDS011;70931;48.796;8.440;2023-08-17T02:19:28;9.80;;;4.63;;
81510;SDS011;70931;48.796;8.440;2023-08-17T02:21:54;8.13;;;4.50;;
81510;SDS011;70931;48.796;8.440;2023-08-17T02:24:19;8.60;;;4.30;;
81510;SDS011;70931;48.796;8.440;2023-08-17T02:26:44;7.97;;;4.20;;
81510;SDS011;70931;48.796;8.440;2023-08-17T02:29:09;9.63;;;4.40;;
81510;SDS011;70931;48.796;8.440;2023-08-17T02:31:35;11.37;;;4.10;;
81510;SDS011;70931;48.796;8.440;2023-08-17T02:34:00;7.07;;;3.93;;
81510;SDS011;70931;48.796;8.440;2023-08-17T02:36:25;7.17;;;3.97;;
81510;SDS011;70931;48.796;8.440;2023-08-17T02:38:51;8.43;;;4.00;;
81510;SDS011;70931;48.796;8.440;2023-08-17T02:41:16;8.27;;;4.00;;
81510;SDS011;70931;48.796;8.440;2023-08-17T02:43:41;7.80;;;4.10;;
81510;SDS011;70931;48.796;8.440;2023-08-17T02:46:06;7.90;;;4.33;;
81510;SDS011;70931;48.796;8.440;2023-08-17T02:48:31;8.67;;;4.10;;
81510;SDS011;70931;48.796;8.440;2023-08-17T02:50:57;7.90;;;3.87;;
81510;SDS011;70931;48.796;8.440;2023-08-17T02:53:22;9.90;;;3.77;;
81510;SDS011;70931;48.796;8.440;2023-08-17T02:55:47;8.83;;;3.53;;
81510;SDS011;70931;48.796;8.440;2023-08-17T02:58:12;8.27;;;4.67;;
81510;SDS011;70931;48.796;8.440;2023-08-17T03:00:38;9.80;;;3.80;;
81510;SDS011;70931;48.796;8.440;2023-08-17T03:03:03;8.60;;;3.70;;
81510;SDS011;70931;48.796;8.440;2023-08-17T03:05:28;9.63;;;3.83;;
81510;SDS011;70931;48.796;8.440;2023-08-17T03:07:53;6.70;;;4.10;;
81510;SDS011;70931;48.796;8.440;2023-08-17T03:10:19;6.67;;;3.50;;
81510;SDS011;70931;48.796;8.440;2023-08-17T03:12:44;7.20;;;3.50;;
81510;SDS011;70931;48.796;8.440;2023-08-17T03:15:09;6.90;;;3.30;;
81510;SDS011;70931;48.796;8.440;2023-08-17T03:17:35;9.90;;;4.07;;
81510;SDS011;70931;48.796;8.440;2023-08-17T03:20:00;11.37;;;4.23;;
81510;SDS011;70931;48.796;8.440;2023-08-17T03:22:25;8.10;;;3.97;;
81510;SDS011;70931;48.796;8.440;2023-08-17T03:24:51;8.43;;;3.90;;
81510;SDS011;70931;48.796;8.440;2023-08-17T03:27:16;7.13;;;3.70;;
81510;SDS011;70931;48.796;8.440;2023-08-17T03:29:42;6.50;;;3.83;;
81510;SDS011;70931;48.796;8.440;2023-08-17T03:32:07;10.63;;;3.63;;
81510;SDS011;70931;48.796;8.440;2023-08-17T03:34:32;6.97;;;4.03;;
81510;SDS011;70931;48.796;8.440;2023-08-17T03:36:57;7.93;;;3.97;;
81510;SDS011;70931;48.796;8.440;2023-08-17T03:39:22;9.17;;;3.97;;
81510;SDS011;70931;48.796;8.440;2023-08-17T03:41:48;6.73;;;3.63;;
81510;SDS011;70931;48.796;8.440;2023-08-17T03:44:13;9.03;;;4.03;;
81510;SDS011;70931;48.796;8.440;2023-08-17T03:46:38;6.47;;;3.97;;
81510;SDS011;70931;48.796;8.440;2023-08-17T03:49:03;6.80;;;3.70;;
81510;SDS011;70931;48.796;8.440;2023-08-17T03:51:28;7.27;;;3.70;;
81510;SDS011;70931;48.796;8.440;2023-08-17T03:53:54;6.30;;;3.70;;
81510;SDS011;70931;48.796;8.440;2023-08-17T03:56:19;8.63;;;3.80;;
81510;SDS011;70931;48.796;8.440;2023-08-17T03:58:44;9.57;;;3.80;;
81510;SDS011;70931;48.796;8.440;2023-08-17T04:01:09;9.20;;;4.10;;
81510;SDS011;70931;48.796;8.440;2023-08-17T04:03:35;9.60;;;3.93;;
81510;SDS011;70931;48.796;8.440;2023-08-17T04:06:06;7.40;;;3.40;;
81510;SDS011;70931;48.796;8.440;2023-08-17T04:08:32;7.35;;;3.75;;
81510;SDS011;70931;48.796;8.440;2023-08-17T04:10:57;7.17;;;3.60;;
81510;SDS011;70931;48.796;8.440;2023-08-17T04:13:23;8.97;;;3.90;;
81510;SDS011;70931;48.796;8.440;2023-08-17T04:15:48;7.93;;;3.67;;
81510;SDS011;70931;48.796;8.440;2023-08-17T04:18:13;9.83;;;3.97;;
81510;SDS011;70931;48.796;8.440;2023-08-17T04:20:38;8.80;;;3.60;;
81510;SDS011;70931;48.796;8.440;2023-08-17T04:23:04;8.07;;;3.53;;
81510;SDS011;70931;48.796;8.440;2023-08-17T04:25:33;6.85;;;3.53;;
81510;SDS011;70931;48.796;8.440;2023-08-17T04:27:58;7.87;;;3.60;;
81510;SDS011;70931;48.796;8.440;2023-08-17T04:30:23;11.13;;;3.83;;
81510;SDS011;70931;48.796;8.440;2023-08-17T04:32:48;8.43;;;3.67;;
81510;SDS011;70931;48.796;8.440;2023-08-17T04:35:14;8.37;;;3.83;;
81510;SDS011;70931;48.796;8.440;2023-08-17T04:37:39;9.03;;;4.20;;
81510;SDS011;70931;48.796;8.440;2023-08-17T04:40:04;6.90;;;3.47;;
81510;SDS011;70931;48.796;8.440;2023-08-17T04:42:30;6.38;;;3.47;;
81510;SDS011;70931;48.796;8.440;2023-08-17T04:44:55;7.40;;;3.73;;
81510;SDS011;70931;48.796;8.440;2023-08-17T04:47:21;8.43;;;3.40;;
81510;SDS011;70931;48.796;8.440;2023-08-17T04:49:46;7.13;;;3.90;;
81510;SDS011;70931;48.796;8.440;2023-08-17T04:52:11;8.50;;;4.13;;
81510;SDS011;70931;48.796;8.440;2023-08-17T04:54:36;6.87;;;4.40;;
81510;SDS011;70931;48.796;8.440;2023-08-17T04:57:01;10.20;;;4.20;;
81510;SDS011;70931;48.796;8.440;2023-08-17T04:59:27;7.83;;;4.07;;
81510;SDS011;70931;48.796;8.440;2023-08-17T05:01:52;9.23;;;4.50;;
81510;SDS011;70931;48.796;8.440;2023-08-17T05:04:17;6.87;;;3.80;;
81510;SDS011;70931;48.796;8.440;2023-08-17T05:06:42;9.20;;;3.77;;
81510;SDS011;70931;48.796;8.440;2023-08-17T05:09:08;9.33;;;3.93;;
81510;SDS011;70931;48.796;8.440;2023-08-17T05:11:33;8.47;;;4.50;;
81510;SDS011;70931;48.796;8.440;2023-08-17T05:13:58;11.37;;;4.20;;
81510;SDS011;70931;48.796;8.440;2023-08-17T05:16:23;7.43;;;3.87;;
81510;SDS011;70931;48.796;8.440;2023-08-17T05:18:49;10.37;;;4.00;;
81510;SDS011;70931;48.796;8.440;2023-08-17T05:21:14;9.60;;;4.20;;
81510;SDS011;70931;48.796;8.440;2023-08-17T05:23:39;9.97;;;4.53;;
81510;SDS011;70931;48.796;8.440;2023-08-17T05:26:04;6.83;;;4.50;;
81510;SDS011;70931;48.796;8.440;2023-08-17T05:28:29;10.47;;;4.27;;
81510;SDS011;70931;48.796;8.440;2023-08-17T05:30:55;8.00;;;4.20;;
81510;SDS011;70931;48.796;8.440;2023-08-17T05:33:20;9.43;;;3.70;;
81510;SDS011;70931;48.796;8.440;2023-08-17T05:35:45;7.30;;;4.03;;
81510;SDS011;70931;48.796;8.440;2023-08-17T05:38:10;11.73;;;4.30;;
81510;SDS011;70931;48.796;8.440;2023-08-17T05:40:36;9.53;;;4.70;;
81510;SDS011;70931;48.796;8.440;2023-08-17T05:43:01;16.60;;;4.57;;
81510;SDS011;70931;48.796;8.440;2023-08-17T05:45:27;9.93;;;4.88;;
81510;SDS011;70931;48.796;8.440;2023-08-17T05:47:52;9.07;;;4.03;;
81510;SDS011;70931;48.796;8.440;2023-08-17T05:50:17;11.33;;;4.43;;
81510;SDS011;70931;48.796;8.440;2023-08-17T05:52:42;7.90;;;4.60;;
81510;SDS011;70931;48.796;8.440;2023-08-17T05:55:08;8.70;;;4.33;;
81510;SDS011;70931;48.796;8.440;2023-08-17T05:57:33;11.13;;;4.68;;
81510;SDS011;70931;48.796;8.440;2023-08-17T05:59:59;8.50;;;4.30;;
81510;SDS011;70931;48.796;8.440;2023-08-17T06:02:24;9.80;;;4.63;;
81510;SDS011;70931;48.796;8.440;2023-08-17T06:04:49;7.10;;;4.80;;
81510;SDS011;70931;48.796;8.440;2023-08-17T06:07:14;9.33;;;4.90;;
81510;SDS011;70931;48.796;8.440;2023-08-17T06:09:40;10.33;;;4.87;;
81510;SDS011;70931;48.796;8.440;2023-08-17T06:12:05;7.60;;;4.40;;
81510;SDS011;70931;48.796;8.440;2023-08-17T06:14:31;8.30;;;5.15;;
81510;SDS011;70931;48.796;8.440;2023-08-17T06:16:57;8.40;;;4.63;;
81510;SDS011;70931;48.796;8.440;2023-08-17T06:19:22;7.60;;;4.87;;
81510;SDS011;70931;48.796;8.440;2023-08-17T06:21:47;9.33;;;5.40;;
81510;SDS011;70931;48.796;8.440;2023-08-17T06:24:13;9.30;;;4.90;;
81510;SDS011;70931;48.796;8.440;2023-08-17T06:26:38;9.63;;;5.20;;
81510;SDS011;70931;48.796;8.440;2023-08-17T06:29:03;11.67;;;5.43;;
81510;SDS011;70931;48.796;8.440;2023-08-17T06:31:28;10.23;;;5.13;;
81510;SDS011;70931;48.796;8.440;2023-08-17T06:33:54;12.47;;;6.23;;
81510;SDS011;70931;48.796;8.440;2023-08-17T06:36:19;11.95;;;6.03;;
81510;SDS011;70931;48.796;8.440;2023-08-17T06:38:45;10.80;;;6.55;;
81510;SDS011;70931;48.796;8.440;2023-08-17T06:41:10;12.03;;;6.23;;
81510;SDS011;70931;48.796;8.440;2023-08-17T06:43:35;11.73;;;5.73;;
81510;SDS011;70931;48.796;8.440;2023-08-17T06:46:01;9.43;;;5.77;;
81510;SDS011;70931;48.796;8.440;2023-08-17T06:48:26;10.23;;;5.77;;
81510;SDS011;70931;48.796;8.440;2023-08-17T06:50:51;10.97;;;5.83;;
81510;SDS011;70931;48.796;8.440;2023-08-17T06:53:16;12.20;;;6.40;;
81510;SDS011;70931;48.796;8.440;2023-08-17T06:55:42;10.93;;;5.60;;
81510;SDS011;70931;48.796;8.440;2023-08-17T06:58:07;10.40;;;6.17;;
81510;SDS011;70931;48.796;8.440;2023-08-17T07:00:32;11.10;;;6.17;;
81510;SDS011;70931;48.796;8.440;2023-08-17T07:02:57;11.33;;;7.00;;
81510;SDS011;70931;48.796;8.440;2023-08-17T07:05:23;12.17;;;6.37;;
81510;SDS011;70931;48.796;8.440;2023-08-17T07:07:48;9.88;;;6.25;;
81510;SDS011;70931;48.796;8.440;2023-08-17T07:10:13;10.43;;;5.70;;
81510;SDS011;70931;48.796;8.440;2023-08-17T07:12:39;12.03;;;6.67;;
81510;SDS011;70931;48.796;8.440;2023-08-17T07:15:04;9.93;;;6.20;;
81510;SDS011;70931;48.796;8.440;2023-08-17T07:17:30;10.25;;;5.90;;
81510;SDS011;70931;48.796;8.440;2023-08-17T07:19:56;13.07;;;7.07;;
81510;SDS011;70931;48.796;8.440;2023-08-17T07:22:21;10.32;;;7.20;;
81510;SDS011;70931;48.796;8.440;2023-08-17T07:24:47;9.70;;;6.70;;
81510;SDS011;70931;48.796;8.440;2023-08-17T07:27:12;11.03;;;7.07;;
81510;SDS011;70931;48.796;8.440;2023-08-17T07:29:37;10.10;;;6.90;;
81510;SDS011;70931;48.796;8.440;2023-08-17T07:32:03;11.53;;;5.97;;
81510;SDS011;70931;48.796;8.440;2023-08-17T07:34:28;13.02;;;7.25;;
81510;SDS011;70931;48.796;8.440;2023-08-17T07:36:53;12.27;;;7.00;;
81510;SDS011;70931;48.796;8.440;2023-08-17T07:39:19;11.13;;;7.37;;
81510;SDS011;70931;48.796;8.440;2023-08-17T07:41:44;9.87;;;6.73;;
81510;SDS011;70931;48.796;8.440;2023-08-17T07:44:09;8.93;;;6.50;;
81510;SDS011;70931;48.796;8.440;2023-08-17T07:46:34;8.77;;;5.20;;
81510;SDS011;70931;48.796;8.440;2023-08-17T07:49:00;8.90;;;5.37;;
81510;SDS011;70931;48.796;8.440;2023-08-17T07:51:25;8.70;;;5.40;;
81510;SDS011;70931;48.796;8.440;2023-08-17T07:53:50;7.50;;;4.77;;
81510;SDS011;70931;48.796;8.440;2023-08-17T07:56:15;8.70;;;4.70;;
81510;SDS011;70931;48.796;8.440;2023-08-17T07:58:40;7.30;;;4.17;;
81510;SDS011;70931;48.796;8.440;2023-08-17T08:01:06;10.03;;;3.90;;
81510;SDS011;70931;48.796;8.440;2023-08-17T08:03:31;7.33;;;3.90;;
81510;SDS011;70931;48.796;8.440;2023-08-17T08:05:56;7.43;;;4.00;;
81510;SDS011;70931;48.796;8.440;2023-08-17T08:08:21;10.33;;;3.63;;
81510;SDS011;70931;48.796;8.440;2023-08-17T08:10:47;7.20;;;3.80;;
81510;SDS011;70931;48.796;8.440;2023-08-17T08:13:12;8.73;;;3.73;;
81510;SDS011;70931;48.796;8.440;2023-08-17T08:15:37;6.87;;;3.77;;
81510;SDS011;70931;48.796;8.440;2023-08-17T08:18:02;7.63;;;3.73;;
81510;SDS011;70931;48.796;8.440;2023-08-17T08:20:28;8.02;;;3.92;;
81510;SDS011;70931;48.796;8.440;2023-08-17T08:22:53;7.78;;;4.15;;
81510;SDS011;70931;48.796;8.440;2023-08-17T08:25:19;8.00;;;4.57;;
81510;SDS011;70931;48.796;8.440;2023-08-17T08:27:44;8.60;;;4.00;;
81510;SDS011;70931;48.796;8.440;2023-08-17T08:30:09;6.37;;;4.03;;
81510;SDS011;70931;48.796;8.440;2023-08-17T08:32:35;7.25;;;4.13;;
81510;SDS011;70931;48.796;8.440;2023-08-17T08:35:00;6.80;;;4.10;;
81510;SDS011;70931;48.796;8.440;2023-08-17T08:37:25;7.77;;;4.50;;
81510;SDS011;70931;48.796;8.440;2023-08-17T08:39:54;7.07;;;4.40;;
81510;SDS011;70931;48.796;8.440;2023-08-17T08:42:20;8.00;;;4.13;;
81510;SDS011;70931;48.796;8.440;2023-08-17T08:44:47;6.95;;;4.13;;
81510;SDS011;70931;48.796;8.440;2023-08-17T08:47:12;10.05;;;4.45;;
81510;SDS011;70931;48.796;8.440;2023-08-17T08:49:38;6.38;;;4.97;;
81510;SDS011;70931;48.796;8.440;2023-08-17T08:52:07;8.38;;;4.43;;
81510;SDS011;70931;48.796;8.440;2023-08-17T08:54:32;8.10;;;4.35;;
81510;SDS011;70931;48.796;8.440;2023-08-17T08:57:03;6.43;;;4.10;;
81510;SDS011;70931;48.796;8.440;2023-08-17T08:59:33;6.18;;;4.45;;
81510;SDS011;70931;48.796;8.440;2023-08-17T09:01:59;6.82;;;3.72;;
81510;SDS011;70931;48.796;8.440;2023-08-17T09:04:24;7.00;;;4.65;;
81510;SDS011;70931;48.796;8.440;2023-08-17T09:06:50;6.75;;;4.10;;
81510;SDS011;70931;48.796;8.440;2023-08-17T09:09:16;6.40;;;4.38;;
81510;SDS011;70931;48.796;8.440;2023-08-17T09:11:41;5.78;;;4.10;;
81510;SDS011;70931;48.796;8.440;2023-08-17T09:14:06;8.00;;;4.03;;
81510;SDS011;70931;48.796;8.440;2023-08-17T09:16:32;8.75;;;4.40;;
81510;SDS011;70931;48.796;8.440;2023-08-17T09:18:57;6.83;;;3.97;;
81510;SDS011;70931;48.796;8.440;2023-08-17T09:21:23;7.75;;;4.20;;
81510;SDS011;70931;48.796;8.440;2023-08-17T09:23:52;8.52;;;4.78;;
81510;SDS011;70931;48.796;8.440;2023-08-17T09:26:19;6.45;;;4.10;;
81510;SDS011;70931;48.796;8.440;2023-08-17T09:28:47;7.05;;;4.28;;
81510;SDS011;70931;48.796;8.440;2023-08-17T09:31:12;6.50;;;4.37;;
81510;SDS011;70931;48.796;8.440;2023-08-17T09:33:37;6.70;;;3.87;;
81510;SDS011;70931;48.796;8.440;2023-08-17T09:36:03;6.77;;;4.17;;
81510;SDS011;70931;48.796;8.440;2023-08-17T09:38:28;7.20;;;4.13;;
81510;SDS011;70931;48.796;8.440;2023-08-17T09:40:54;7.47;;;4.20;;
81510;SDS011;70931;48.796;8.440;2023-08-17T09:43:19;6.38;;;4.20;;
81510;SDS011;70931;48.796;8.440;2023-08-17T09:45:44;8.67;;;4.23;;
81510;SDS011;70931;48.796;8.440;2023-08-17T09:48:10;8.13;;;4.00;;
81510;SDS011;70931;48.796;8.440;2023-08-17T09:50:35;6.23;;;4.20;;
81510;SDS011;70931;48.796;8.440;2023-08-17T09:53:04;6.88;;;4.18;;
81510;SDS011;70931;48.796;8.440;2023-08-17T09:55:32;7.25;;;4.05;;
81510;SDS011;70931;48.796;8.440;2023-08-17T09:57:57;6.22;;;3.92;;
81510;SDS011;70931;48.796;8.440;2023-08-17T10:00:23;5.93;;;4.10;;
81510;SDS011;70931;48.796;8.440;2023-08-17T10:02:50;5.68;;;4.05;;
81510;SDS011;70931;48.796;8.440;2023-08-17T10:05:20;6.50;;;4.25;;
81510;SDS011;70931;48.796;8.440;2023-08-17T10:07:51;6.35;;;4.45;;
81510;SDS011;70931;48.796;8.440;2023-08-17T10:15:47;6.68;;;4.78;;
81510;SDS011;70931;48.796;8.440;2023-08-17T10:18:42;7.22;;;4.90;;
81510;SDS011;70931;48.796;8.440;2023-08-17T10:21:23;7.13;;;4.60;;
81510;SDS011;70931;48.796;8.440;2023-08-17T10:23:53;6.50;;;4.30;;
81510;SDS011;70931;48.796;8.440;2023-08-17T10:26:20;7.55;;;4.75;;
81510;SDS011;70931;48.796;8.440;2023-08-17T10:28:46;6.78;;;4.90;;
81510;SDS011;70931;48.796;8.440;2023-08-17T10:31:13;7.18;;;4.75;;
81510;SDS011;70931;48.796;8.440;2023-08-17T10:33:38;7.88;;;5.22;;
81510;SDS011;70931;48.796;8.440;2023-08-17T10:36:05;7.30;;;5.43;;
81510;SDS011;70931;48.796;8.440;2023-08-17T10:38:30;7.68;;;4.75;;
81510;SDS011;70931;48.796;8.440;2023-08-17T10:44:10;8.77;;;4.70;;
81510;SDS011;70931;48.796;8.440;2023-08-17T10:46:31;8.00;;;5.25;;
81510;SDS011;70931;48.796;8.440;2023-08-17T10:49:00;6.70;;;4.75;;
81510;SDS011;70931;48.796;8.440;2023-08-17T10:51:27;8.27;;;5.05;;
81510;SDS011;70931;48.796;8.440;2023-08-17T10:53:52;7.93;;;5.03;;
81510;SDS011;70931;48.796;8.440;2023-08-17T10:56:18;8.03;;;5.57;;
81510;SDS011;70931;48.796;8.440;2023-08-17T10:58:43;7.13;;;4.97;;
81510;SDS011;70931;48.796;8.440;2023-08-17T11:01:08;8.73;;;5.53;;
81510;SDS011;70931;48.796;8.440;2023-08-17T11:03:34;8.40;;;6.23;;
81510;SDS011;70931;48.796;8.440;2023-08-17T11:06:13;9.98;;;5.43;;
81510;SDS011;70931;48.796;8.440;2023-08-17T11:08:52;7.55;;;5.53;;
81510;SDS011;70931;48.796;8.440;2023-08-17T11:11:19;9.55;;;5.40;;
81510;SDS011;70931;48.796;8.440;2023-08-17T11:13:45;8.38;;;5.38;;
81510;SDS011;70931;48.796;8.440;2023-08-17T11:16:12;10.27;;;5.70;;
81510;SDS011;70931;48.796;8.440;2023-08-17T11:18:38;10.55;;;5.35;;
81510;SDS011;70931;48.796;8.440;2023-08-17T11:21:04;8.45;;;5.45;;
81510;SDS011;70931;48.796;8.440;2023-08-17T11:23:31;8.73;;;5.50;;
81510;SDS011;70931;48.796;8.440;2023-08-17T11:25:57;8.07;;;5.22;;
81510;SDS011;70931;48.796;8.440;2023-08-17T11:28:23;9.45;;;5.05;;
81510;SDS011;70931;48.796;8.440;2023-08-17T11:30:58;7.90;;;5.68;;
81510;SDS011;70931;48.796;8.440;2023-08-17T11:33:25;8.10;;;5.10;;
81510;SDS011;70931;48.796;8.440;2023-08-17T11:35:51;8.23;;;5.40;;
81510;SDS011;70931;48.796;8.440;2023-08-17T11:38:16;8.53;;;5.90;;
81510;SDS011;70931;48.796;8.440;2023-08-17T11:40:41;8.10;;;5.73;;
81510;SDS011;70931;48.796;8.440;2023-08-17T11:43:07;9.32;;;5.93;;
81510;SDS011;70931;48.796;8.440;2023-08-17T11:45:32;9.30;;;6.27;;
81510;SDS011;70931;48.796;8.440;2023-08-17T11:47:57;8.37;;;5.63;;
81510;SDS011;70931;48.796;8.440;2023-08-17T11:50:24;11.37;;;5.70;;
81510;SDS011;70931;48.796;8.440;2023-08-17T11:52:50;10.52;;;5.97;;
81510;SDS011;70931;48.796;8.440;2023-08-17T11:55:16;7.63;;;5.33;;
81510;SDS011;70931;48.796;8.440;2023-08-17T11:57:42;9.15;;;6.00;;
81510;SDS011;70931;48.796;8.440;2023-08-17T12:00:07;8.27;;;5.73;;
81510;SDS011;70931;48.796;8.440;2023-08-17T12:02:33;8.40;;;6.13;;
81510;SDS011;70931;48.796;8.440;2023-08-17T12:04:58;8.93;;;5.97;;
81510;SDS011;70931;48.796;8.440;2023-08-17T12:07:23;8.43;;;6.40;;
81510;SDS011;70931;48.796;8.440;2023-08-17T12:09:50;10.93;;;6.03;;
81510;SDS011;70931;48.796;8.440;2023-08-17T12:12:19;9.98;;;5.90;;
81510;SDS011;70931;48.796;8.440;2023-08-17T12:14:47;9.02;;;5.55;;
81510;SDS011;70931;48.796;8.440;2023-08-17T12:17:18;8.23;;;5.88;;
81510;SDS011;70931;48.796;8.440;2023-08-17T12:19:44;10.13;;;7.03;;
81510;SDS011;70931;48.796;8.440;2023-08-17T12:22:14;7.85;;;6.50;;
81510;SDS011;70931;48.796;8.440;2023-08-17T12:24:39;8.15;;;6.53;;
81510;SDS011;70931;48.796;8.440;2023-08-17T12:27:07;9.27;;;6.40;;
81510;SDS011;70931;48.796;8.440;2023-08-17T12:29:33;10.38;;;6.70;;
81510;SDS011;70931;48.796;8.440;2023-08-17T12:31:59;8.27;;;6.10;;
81510;SDS011;70931;48.796;8.440;2023-08-17T12:34:26;8.90;;;6.35;;
81510;SDS011;70931;48.796;8.440;2023-08-17T12:36:51;10.30;;;7.30;;
81510;SDS011;70931;48.796;8.440;2023-08-17T12:39:17;9.57;;;6.20;;
81510;SDS011;70931;48.796;8.440;2023-08-17T12:41:42;8.70;;;6.53;;
81510;SDS011;70931;48.796;8.440;2023-08-17T12:44:10;10.10;;;6.83;;
81510;SDS011;70931;48.796;8.440;2023-08-17T12:46:35;9.30;;;7.05;;
81510;SDS011;70931;48.796;8.440;2023-08-17T12:49:01;10.63;;;7.13;;
81510;SDS011;70931;48.796;8.440;2023-08-17T12:51:26;10.83;;;7.20;;
81510;SDS011;70931;48.796;8.440;2023-08-17T12:53:51;10.17;;;7.50;;
81510;SDS011;70931;48.796;8.440;2023-08-17T12:56:16;9.00;;;6.97;;
81510;SDS011;70931;48.796;8.440;2023-08-17T12:58:41;9.80;;;7.17;;
81510;SDS011;70931;48.796;8.440;2023-08-17T13:01:07;9.60;;;7.70;;
81510;SDS011;70931;48.796;8.440;2023-08-17T13:03:32;10.30;;;7.17;;
81510;SDS011;70931;48.796;8.440;2023-08-17T13:05:57;10.30;;;7.57;;
81510;SDS011;70931;48.796;8.440;2023-08-17T13:08:22;10.87;;;7.93;;
81510;SDS011;70931;48.796;8.440;2023-08-17T13:10:48;8.97;;;6.83;;
81510;SDS011;70931;48.796;8.440;2023-08-17T13:13:13;10.57;;;7.03;;
81510;SDS011;70931;48.796;8.440;2023-08-17T13:15:38;10.30;;;6.80;;
81510;SDS011;70931;48.796;8.440;2023-08-17T13:18:03;10.73;;;7.43;;
81510;SDS011;70931;48.796;8.440;2023-08-17T13:20:29;10.32;;;7.78;;
81510;SDS011;70931;48.796;8.440;2023-08-17T13:22:55;10.80;;;7.00;;
81510;SDS011;70931;48.796;8.440;2023-08-17T13:25:20;9.50;;;6.83;;
81510;SDS011;70931;48.796;8.440;2023-08-17T13:27:45;9.87;;;7.03;;
81510;SDS011;70931;48.796;8.440;2023-08-17T13:30:10;7.77;;;6.13;;
81510;SDS011;70931;48.796;8.440;2023-08-17T13:32:36;8.60;;;6.75;;
81510;SDS011;70931;48.796;8.440;2023-08-17T13:35:02;8.40;;;6.50;;
81510;SDS011;70931;48.796;8.440;2023-08-17T13:37:28;9.50;;;6.68;;
81510;SDS011;70931;48.796;8.440;2023-08-17T13:39:53;9.13;;;6.00;;
81510;SDS011;70931;48.796;8.440;2023-08-17T13:42:19;9.35;;;5.88;;
81510;SDS011;70931;48.796;8.440;2023-08-17T13:44:44;8.27;;;5.70;;
81510;SDS011;70931;48.796;8.440;2023-08-17T13:47:10;8.80;;;5.78;;
81510;SDS011;70931;48.796;8.440;2023-08-17T13:49:35;8.20;;;5.83;;
81510;SDS011;70931;48.796;8.440;2023-08-17T13:52:00;8.83;;;5.50;;
81510;SDS011;70931;48.796;8.440;2023-08-17T13:54:25;7.90;;;5.63;;
81510;SDS011;70931;48.796;8.440;2023-08-17T13:56:51;8.83;;;5.90;;
81510;SDS011;70931;48.796;8.440;2023-08-17T13:59:16;9.18;;;5.70;;
81510;SDS011;70931;48.796;8.440;2023-08-17T14:01:41;7.47;;;5.20;;
81510;SDS011;70931;48.796;8.440;2023-08-17T14:04:07;8.30;;;5.43;;
81510;SDS011;70931;48.796;8.440;2023-08-17T14:06:32;8.50;;;4.80;;
81510;SDS011;70931;48.796;8.440;2023-08-17T14:08:57;8.60;;;5.20;;
81510;SDS011;70931;48.796;8.440;2023-08-17T14:11:22;7.73;;;5.10;;
81510;SDS011;70931;48.796;8.440;2023-08-17T14:13:48;7.30;;;5.23;;
81510;SDS011;70931;48.796;8.440;2023-08-17T14:16:13;6.87;;;5.03;;
81510;SDS011;70931;48.796;8.440;2023-08-17T14:18:38;8.10;;;4.90;;
81510;SDS011;70931;48.796;8.440;2023-08-17T14:21:03;7.20;;;4.90;;
81510;SDS011;70931;48.796;8.440;2023-08-17T14:23:28;6.93;;;4.93;;
81510;SDS011;70931;48.796;8.440;2023-08-17T14:25:54;7.90;;;4.90;;
81510;SDS011;70931;48.796;8.440;2023-08-17T14:28:19;7.20;;;5.50;;
81510;SDS011;70931;48.796;8.440;2023-08-17T14:30:44;8.83;;;5.37;;
81510;SDS011;70931;48.796;8.440;2023-08-17T14:33:09;8.07;;;5.17;;
81510;SDS011;70931;48.796;8.440;2023-08-17T14:35:35;8.17;;;5.33;;
81510;SDS011;70931;48.796;8.440;2023-08-17T14:38:00;7.07;;;4.73;;
81510;SDS011;70931;48.796;8.440;2023-08-17T14:40:25;7.37;;;5.00;;
81510;SDS011;70931;48.796;8.440;2023-08-17T14:42:50;7.93;;;5.53;;
81510;SDS011;70931;48.796;8.440;2023-08-17T14:45:16;9.17;;;5.33;;
81510;SDS011;70931;48.796;8.440;2023-08-17T14:47:41;9.40;;;5.47;;
81510;SDS011;70931;48.796;8.440;2023-08-17T14:50:06;7.97;;;5.27;;
81510;SDS011;70931;48.796;8.440;2023-08-17T14:52:32;8.45;;;5.47;;
81510;SDS011;70931;48.796;8.440;2023-08-17T14:54:57;8.05;;;5.38;;